CheckWX is a tool to help pilots better visualize weather data.  It is not intended as a substitute for an official pre-flight weather briefing.

23:11:27 UTC

KASW METAR
Warsaw Municipal Airport
Warsaw, Indiana, USA
Current

16 mins ago

KASW 222255Z AUTO 00000KT 10SM CLR 00/M03 A3013 RMK AO2
Observed
Nov-22 @ 22:55 UTC
Visibility
10 SM
Flight Rules
VFR
Cloud Levels
  • Clear skies
Temperature
C / 32°F
Dewpoint
-3°C / 27°F
Humidity
80%
Altimeter
30.13" Hg
Pressure
1020.32 hPa
Previous

36 mins ago

KASW 222235Z AUTO 36003KT 10SM CLR 01/M03 A3012 RMK AO2
Observed
Nov-22 @ 22:35 UTC
Wind
  • 360° at 3 KTS
Visibility
10 SM
Flight Rules
VFR
Cloud Levels
  • Clear skies
Temperature
C / 34°F
Dewpoint
-3°C / 27°F
Humidity
75%
Altimeter
30.12" Hg
Pressure
1020.02 hPa
Previous

56 mins ago

KASW 222215Z AUTO 35003KT 10SM CLR 01/M03 A3012 RMK AO2
Observed
Nov-22 @ 22:15 UTC
Wind
  • 350° at 3 KTS
Visibility
10 SM
Flight Rules
VFR
Cloud Levels
  • Clear skies
Temperature
C / 34°F
Dewpoint
-3°C / 27°F
Humidity
75%
Altimeter
30.12" Hg
Pressure
1020.02 hPa